Terminal Aerodrome Forecast
Issued by NWS Flagstaff, AZ

Home | Current Version | Previous Version | Text Only | Print | Product List | Glossary On
Versions: 1 2 3 4 5 6 7 8 9 10 11 12 13 14 15 16 17 18 19 20 21 22 23 24 25 26 27 28 29 30 31 32
000
FTUS45 KFGZ 020522
TAFFLG
TAF
KFLG 020522Z 0206/0306 VRB05KT P6SM VCFG SCT012
     FM021000 VRB05KT P6SM VCFG BKN015
     FM021400 VRB05KT P6SM SCT015 SCT050
     FM021800 07007KT P6SM VCSH BKN035=

USA.gov is the U.S. government's official web portal to all federal, state and local government web resources and services.